createdAt,value
2022-08-12T00:01:14.419Z,3.60
2022-08-12T00:04:00.808Z,3.08
2022-08-12T00:06:47.445Z,3.45
2022-08-12T00:09:33.335Z,2.92
2022-08-12T00:12:20.849Z,3.45
2022-08-12T00:15:08.066Z,3.63
2022-08-12T00:17:54.452Z,3.40
2022-08-12T00:20:40.223Z,3.53
2022-08-12T00:23:26.195Z,3.63
2022-08-12T00:26:22.495Z,3.20
2022-08-12T00:29:12.438Z,3.80
2022-08-12T00:32:01.000Z,3.00
2022-08-12T00:34:51.922Z,3.35
2022-08-12T00:37:40.207Z,3.15
2022-08-12T00:40:30.030Z,3.45
2022-08-12T00:42:58.267Z,3.17
2022-08-12T00:45:26.324Z,3.85
2022-08-12T00:47:54.204Z,3.45
2022-08-12T00:50:22.933Z,3.17
2022-08-12T00:52:52.449Z,3.63
2022-08-12T00:55:21.433Z,3.22
2022-08-12T00:57:50.396Z,2.65
2022-08-12T01:00:19.428Z,3.40
2022-08-12T01:02:51.606Z,3.17
2022-08-12T01:05:43.004Z,4.07
2022-08-12T01:08:29.414Z,3.55
2022-08-12T01:11:16.324Z,3.25
2022-08-12T01:13:47.515Z,2.72
2022-08-12T01:16:22.617Z,3.97
2022-08-12T01:18:53.064Z,3.58
2022-08-12T01:21:32.344Z,3.65
2022-08-12T01:24:28.023Z,3.13
2022-08-12T01:26:59.531Z,3.45
2022-08-12T01:29:32.995Z,4.13
2022-08-12T01:32:06.159Z,3.80
2022-08-12T01:34:37.546Z,3.72
2022-08-12T01:37:07.702Z,3.55
2022-08-12T01:40:35.378Z,3.35
2022-08-12T01:42:47.498Z,3.22
2022-08-12T01:45:17.544Z,3.45
2022-08-12T01:48:16.788Z,3.67
2022-08-12T01:51:06.160Z,3.10
2022-08-12T01:54:04.527Z,3.78
2022-08-12T01:57:02.316Z,3.95
2022-08-12T01:59:50.212Z,3.92
2022-08-12T02:02:28.728Z,4.72
2022-08-12T02:05:33.140Z,4.05
2022-08-12T02:08:19.181Z,3.83
2022-08-12T02:11:18.549Z,3.90
2022-08-12T02:14:05.486Z,3.60
2022-08-12T02:16:41.967Z,4.03
2022-08-12T02:19:28.531Z,4.20
2022-08-12T02:22:30.155Z,4.10
2022-08-12T02:25:30.058Z,3.75
2022-08-12T02:27:57.455Z,3.97
2022-08-12T02:30:41.888Z,3.70
2022-08-12T02:33:11.502Z,4.40
2022-08-12T02:35:42.384Z,4.03
2022-08-12T02:38:11.572Z,3.75
2022-08-12T02:40:43.079Z,3.60
2022-08-12T02:43:41.579Z,4.13
2022-08-12T02:46:14.949Z,4.40
2022-08-12T02:49:03.482Z,4.35
2022-08-12T02:51:34.588Z,3.95
2022-08-12T02:54:05.327Z,3.83
2022-08-12T02:56:37.819Z,4.30
2022-08-12T02:59:11.119Z,3.70
2022-08-12T03:01:47.694Z,4.13
2022-08-12T03:04:43.468Z,3.90
2022-08-12T03:10:04.864Z,3.85
2022-08-12T03:12:47.457Z,3.63
2022-08-12T03:15:18.989Z,3.50
2022-08-12T03:18:24.911Z,3.63
2022-08-12T03:20:56.930Z,4.20
2022-08-12T03:23:30.154Z,3.72
2022-08-12T03:26:02.823Z,3.80
2022-08-12T03:28:51.316Z,3.35
2022-08-12T03:31:24.468Z,3.67
2022-08-12T03:34:01.327Z,3.60
2022-08-12T03:36:36.009Z,3.65
2022-08-12T03:39:23.849Z,3.63
2022-08-12T03:42:22.392Z,4.22
2022-08-12T03:45:29.466Z,3.80
2022-08-12T03:48:18.905Z,3.53
2022-08-12T03:51:06.704Z,3.53
2022-08-12T03:53:53.211Z,3.72
2022-08-12T03:56:39.092Z,3.50
2022-08-12T03:59:26.315Z,3.58
2022-08-12T04:01:57.984Z,3.90
2022-08-12T04:04:34.713Z,3.65
2022-08-12T04:07:08.541Z,4.38
2022-08-12T04:09:41.003Z,4.57
2022-08-12T04:12:29.974Z,3.75
2022-08-12T04:15:01.176Z,3.97
2022-08-12T04:17:29.084Z,3.80
2022-08-12T04:19:58.084Z,3.75
2022-08-12T04:22:30.542Z,3.50
2022-08-12T04:25:01.203Z,4.00
2022-08-12T04:27:31.232Z,4.10
2022-08-12T04:30:17.243Z,4.88
2022-08-12T04:32:50.965Z,3.75
2022-08-12T04:35:20.290Z,4.07
2022-08-12T04:37:59.399Z,4.15
2022-08-12T04:40:32.437Z,4.60
2022-08-12T04:43:01.396Z,4.32
2022-08-12T04:45:34.710Z,4.07
2022-08-12T04:48:02.648Z,4.80
2022-08-12T04:50:34.253Z,4.45
2022-08-12T04:53:04.354Z,4.63
2022-08-12T04:55:33.432Z,4.20
2022-08-12T04:58:00.953Z,4.47
2022-08-12T05:00:28.437Z,4.50
2022-08-12T05:02:56.257Z,5.20
2022-08-12T05:05:24.717Z,4.30
2022-08-12T05:07:54.211Z,5.53
2022-08-12T05:10:33.408Z,4.60
2022-08-12T05:13:07.850Z,4.45
2022-08-12T05:15:53.041Z,4.45
2022-08-12T05:18:25.795Z,4.88
2022-08-12T05:20:59.105Z,4.25
2022-08-12T05:23:27.567Z,4.63
2022-08-12T05:25:56.947Z,4.60
2022-08-12T05:28:26.793Z,5.20
2022-08-12T05:30:55.290Z,5.40
2022-08-12T05:33:26.493Z,4.82
2022-08-12T05:35:53.946Z,4.57
2022-08-12T05:38:39.703Z,4.45
2022-08-12T05:41:19.228Z,4.63
2022-08-12T05:43:52.053Z,5.07
2022-08-12T05:46:22.200Z,5.38
2022-08-12T05:48:51.251Z,4.90
2022-08-12T05:51:18.893Z,4.72
2022-08-12T05:53:46.321Z,5.47
2022-08-12T05:56:24.055Z,5.80
2022-08-12T05:58:53.022Z,5.10
2022-08-12T06:02:12.477Z,4.97
2022-08-12T06:04:10.265Z,5.22
2022-08-12T06:06:41.647Z,5.18
2022-08-12T06:09:11.339Z,4.95
2022-08-12T06:11:41.423Z,4.97
2022-08-12T06:14:27.191Z,4.80
2022-08-12T06:16:56.210Z,4.95
2022-08-12T06:19:25.155Z,5.13
2022-08-12T06:22:12.566Z,6.05
2022-08-12T06:24:39.955Z,5.97
2022-08-12T06:27:07.538Z,5.82
2022-08-12T06:30:06.730Z,6.43
2022-08-12T06:32:28.103Z,6.47
2022-08-12T06:35:23.904Z,6.85
2022-08-12T06:37:56.606Z,6.47
2022-08-12T06:40:44.030Z,6.28
2022-08-12T06:43:12.086Z,6.00
2022-08-12T06:45:45.919Z,7.07
2022-08-12T06:48:14.389Z,6.45
2022-08-12T06:50:42.535Z,7.47
2022-08-12T06:53:11.295Z,7.68
2022-08-12T06:55:39.421Z,7.28
2022-08-12T06:58:26.718Z,7.18
2022-08-12T07:00:55.969Z,7.00
2022-08-12T07:03:28.667Z,6.03
2022-08-12T07:06:01.760Z,6.20
2022-08-12T07:08:35.294Z,5.88
2022-08-12T07:11:06.620Z,5.53
2022-08-12T07:14:11.163Z,5.82
2022-08-12T07:16:28.323Z,5.65
2022-08-12T07:18:56.792Z,6.40
2022-08-12T07:21:59.797Z,6.90
2022-08-12T07:24:13.783Z,5.95
2022-08-12T07:26:44.254Z,5.43
2022-08-12T07:29:12.218Z,6.80
2022-08-12T07:31:40.287Z,5.38
2022-08-12T07:34:07.757Z,5.50
2022-08-12T07:36:35.371Z,5.60
2022-08-12T07:39:02.825Z,6.22
2022-08-12T07:41:31.935Z,5.82
2022-08-12T07:44:06.381Z,5.15
2022-08-12T07:46:38.833Z,6.03
2022-08-12T07:49:09.738Z,5.10
2022-08-12T07:51:38.408Z,4.53
2022-08-12T07:54:09.563Z,4.20
2022-08-12T07:56:38.686Z,3.70
2022-08-12T07:59:08.583Z,4.05
2022-08-12T08:01:39.248Z,4.13
2022-08-12T08:04:25.777Z,4.18
2022-08-12T08:06:53.879Z,3.88
2022-08-12T08:09:24.000Z,3.50
2022-08-12T08:12:18.767Z,4.10
2022-08-12T08:14:48.368Z,4.38
2022-08-12T08:17:17.693Z,3.67
2022-08-12T08:19:48.508Z,3.70
2022-08-12T08:22:35.620Z,5.07
2022-08-12T08:25:34.790Z,3.90
2022-08-12T08:28:08.230Z,4.13
2022-08-12T08:30:38.703Z,3.88
2022-08-12T08:33:15.558Z,3.78
2022-08-12T08:35:54.500Z,3.65
2022-08-12T08:38:32.327Z,3.83
2022-08-12T08:42:16.941Z,4.15
2022-08-12T08:44:11.676Z,3.50
2022-08-12T08:46:40.514Z,3.47
2022-08-12T08:49:08.498Z,3.58
2022-08-12T08:51:37.023Z,3.78
2022-08-12T08:54:04.932Z,4.03
2022-08-12T08:56:32.711Z,3.75
2022-08-12T08:59:00.100Z,3.75
2022-08-12T09:01:37.291Z,3.53
2022-08-12T09:05:08.739Z,3.63
2022-08-12T09:06:56.669Z,3.50
2022-08-12T09:09:34.168Z,4.00
2022-08-12T09:12:32.422Z,3.88
2022-08-12T09:15:16.582Z,3.33
2022-08-12T09:17:55.974Z,3.17
2022-08-12T09:20:30.476Z,3.55
2022-08-12T09:22:58.912Z,3.67
2022-08-12T09:25:27.093Z,3.75
2022-08-12T09:28:04.905Z,3.40
2022-08-12T09:30:41.436Z,3.55
2022-08-12T09:33:19.317Z,3.35
2022-08-12T09:36:04.255Z,3.15
2022-08-12T09:38:33.500Z,3.40
2022-08-12T09:42:34.162Z,3.65
2022-08-12T09:44:39.161Z,3.13
2022-08-12T09:46:57.339Z,3.65
2022-08-12T09:49:24.995Z,3.40
2022-08-12T09:51:55.400Z,3.63
2022-08-12T09:54:33.408Z,3.15
2022-08-12T09:58:45.014Z,3.33
2022-08-12T10:00:17.834Z,3.25
2022-08-12T10:03:32.009Z,3.10
2022-08-12T10:08:52.644Z,3.80
2022-08-12T10:12:11.889Z,3.20
2022-08-12T10:14:34.564Z,3.00
2022-08-12T10:17:08.631Z,3.10
2022-08-12T10:19:37.870Z,2.95
2022-08-12T10:22:17.092Z,2.70
2022-08-12T10:25:17.084Z,2.70
2022-08-12T10:28:08.408Z,2.92
2022-08-12T10:30:44.126Z,3.47
2022-08-12T10:33:30.798Z,2.80
2022-08-12T10:36:01.902Z,2.75
2022-08-12T10:38:38.141Z,2.85
2022-08-12T10:41:57.077Z,2.83
2022-08-12T10:44:17.076Z,2.78
2022-08-12T10:46:49.882Z,2.90
2022-08-12T10:50:02.438Z,3.08
2022-08-12T10:52:34.701Z,2.35
2022-08-12T10:54:57.265Z,2.63
2022-08-12T10:58:15.020Z,2.65
2022-08-12T11:00:35.023Z,2.33
2022-08-12T11:04:35.725Z,2.22
2022-08-12T11:07:07.086Z,2.15
2022-08-12T11:08:42.867Z,2.08
2022-08-12T11:12:36.915Z,2.45
2022-08-12T11:14:06.795Z,2.53
2022-08-12T11:17:53.313Z,2.20
2022-08-12T11:19:49.857Z,2.67
2022-08-12T11:22:18.020Z,2.38
2022-08-12T11:24:51.566Z,2.95
2022-08-12T11:27:19.268Z,2.55
2022-08-12T11:30:05.310Z,2.63
2022-08-12T11:32:38.760Z,2.80
2022-08-12T11:35:07.637Z,2.45
2022-08-12T11:37:58.055Z,2.38
2022-08-12T11:40:24.622Z,2.63
2022-08-12T11:42:53.135Z,2.33
2022-08-12T11:45:20.629Z,2.40
2022-08-12T11:47:49.190Z,2.83
2022-08-12T11:50:19.069Z,2.63
2022-08-12T11:52:55.434Z,3.03
2022-08-12T11:55:24.265Z,2.60
2022-08-12T11:58:19.813Z,2.40
2022-08-12T12:03:43.876Z,2.38
2022-08-12T12:06:16.870Z,2.38
2022-08-12T12:08:52.799Z,2.67
2022-08-12T12:11:22.835Z,2.28
2022-08-12T12:14:07.855Z,2.50
2022-08-12T12:16:39.697Z,2.60
2022-08-12T12:19:10.390Z,2.55
2022-08-12T12:21:48.568Z,2.65
2022-08-12T12:24:21.813Z,3.10
2022-08-12T12:27:00.562Z,3.95
2022-08-12T12:30:18.174Z,2.63
2022-08-12T12:32:18.658Z,2.55
2022-08-12T12:35:13.981Z,2.80
2022-08-12T12:38:03.806Z,2.88
2022-08-12T12:40:29.902Z,2.50
2022-08-12T12:43:03.048Z,2.45
2022-08-12T12:45:35.592Z,2.58
2022-08-12T12:48:11.658Z,2.60
2022-08-12T12:50:45.673Z,2.03
2022-08-12T12:54:07.118Z,2.30
2022-08-12T12:56:15.654Z,1.98
2022-08-12T12:58:43.993Z,1.95
2022-08-12T13:01:26.704Z,1.92
2022-08-12T13:04:02.603Z,2.88
2022-08-12T13:06:31.692Z,2.38
2022-08-12T13:09:03.309Z,2.78
2022-08-12T13:11:41.796Z,2.33
2022-08-12T13:14:28.040Z,1.90
2022-08-12T13:16:57.495Z,2.65
2022-08-12T13:19:38.938Z,2.25
2022-08-12T13:22:23.596Z,2.58
2022-08-12T13:24:56.230Z,2.17
2022-08-12T13:27:35.151Z,2.28
2022-08-12T13:30:12.422Z,2.47
2022-08-12T13:32:42.112Z,2.20
2022-08-12T13:35:20.284Z,2.17
2022-08-12T13:37:59.207Z,2.40
2022-08-12T13:40:33.163Z,2.10
2022-08-12T13:43:01.965Z,2.60
2022-08-12T13:45:31.271Z,2.10
2022-08-12T13:48:04.967Z,2.45
2022-08-12T13:50:37.411Z,2.03
2022-08-12T13:53:24.604Z,2.25
2022-08-12T13:56:01.502Z,2.83
2022-08-12T13:58:34.797Z,2.10
2022-08-12T14:01:05.449Z,2.15
2022-08-12T14:03:51.033Z,2.30
2022-08-12T14:06:21.116Z,2.53
2022-08-12T14:08:49.731Z,2.45
2022-08-12T14:11:19.224Z,2.83
2022-08-12T14:14:05.948Z,1.92
2022-08-12T14:16:46.661Z,1.88
2022-08-12T14:19:24.288Z,2.30
2022-08-12T14:22:01.176Z,2.00
2022-08-12T14:24:40.050Z,2.30
2022-08-12T14:27:11.026Z,2.47
2022-08-12T14:30:05.136Z,1.90
2022-08-12T14:35:09.434Z,2.15
2022-08-12T14:37:57.205Z,2.03
2022-08-12T14:40:30.129Z,2.05
2022-08-12T14:42:58.696Z,1.77
2022-08-12T14:45:44.715Z,1.90
2022-08-12T14:48:18.514Z,2.10
2022-08-12T14:51:09.625Z,2.30
2022-08-12T14:59:56.350Z,2.47
2022-08-12T15:02:20.347Z,1.95
2022-08-12T15:04:54.691Z,2.13
2022-08-12T15:07:34.306Z,2.17
2022-08-12T15:10:10.033Z,1.83
2022-08-12T15:12:40.721Z,2.10
2022-08-12T15:15:09.061Z,1.95
2022-08-12T15:17:38.812Z,2.10
2022-08-12T15:20:28.701Z,2.08
2022-08-12T15:22:56.513Z,2.10
2022-08-12T15:25:29.321Z,2.20
2022-08-12T15:28:10.845Z,1.92
2022-08-12T15:30:48.261Z,2.05
2022-08-12T15:33:20.941Z,1.77
2022-08-12T15:35:50.395Z,2.13
2022-08-12T15:38:25.085Z,1.88
2022-08-12T15:40:54.562Z,1.95
2022-08-12T15:43:51.744Z,1.80
2022-08-12T15:46:15.736Z,2.05
2022-08-12T15:48:46.852Z,2.00
2022-08-12T15:51:57.423Z,2.17
2022-08-12T15:54:33.251Z,1.90
2022-08-12T15:57:08.132Z,1.95
2022-08-12T16:00:04.592Z,2.10
2022-08-12T16:02:29.612Z,1.63
2022-08-12T16:04:58.087Z,2.05
2022-08-12T16:07:32.535Z,1.73
2022-08-12T16:10:06.655Z,1.48
2022-08-12T16:12:54.410Z,2.30
2022-08-12T16:15:26.509Z,2.22
2022-08-12T16:18:20.052Z,2.10
2022-08-12T16:20:46.454Z,1.85
2022-08-12T16:23:36.170Z,1.90
2022-08-12T16:26:14.658Z,1.70
2022-08-12T16:28:47.633Z,1.65
2022-08-12T16:31:23.640Z,1.85
2022-08-12T16:33:56.771Z,1.75
2022-08-12T16:36:31.324Z,1.80
2022-08-12T16:39:01.611Z,2.05
2022-08-12T16:41:37.990Z,1.88
2022-08-12T16:44:08.761Z,2.42
2022-08-12T16:46:38.006Z,2.70
2022-08-12T16:49:13.504Z,1.85
2022-08-12T16:51:46.865Z,2.30
2022-08-12T16:54:26.555Z,2.08
2022-08-12T16:57:05.894Z,1.90
2022-08-12T16:59:53.246Z,2.00
2022-08-12T17:02:34.147Z,2.20
2022-08-12T17:05:04.978Z,1.90
2022-08-12T17:07:38.147Z,2.00
2022-08-12T17:10:12.759Z,2.30
2022-08-12T17:12:40.652Z,1.73
2022-08-12T17:15:51.146Z,2.20
2022-08-12T17:18:38.818Z,1.98
2022-08-12T17:20:52.414Z,2.00
2022-08-12T17:23:21.293Z,1.70
2022-08-12T17:25:53.050Z,1.80
2022-08-12T17:28:22.528Z,1.80
2022-08-12T17:30:57.312Z,2.00
2022-08-12T17:33:33.739Z,1.67
2022-08-12T17:36:05.630Z,2.40
2022-08-12T17:38:35.971Z,2.28
2022-08-12T17:41:22.468Z,1.50
2022-08-12T17:43:58.493Z,2.30
2022-08-12T17:46:33.263Z,1.80
2022-08-12T17:49:18.885Z,2.00
2022-08-12T17:52:02.446Z,2.17
2022-08-12T17:54:31.140Z,2.05
2022-08-12T17:57:03.216Z,1.80
2022-08-12T17:59:48.336Z,1.65
2022-08-12T18:02:25.475Z,1.48
2022-08-12T18:05:05.237Z,1.67
2022-08-12T18:07:35.636Z,1.80
2022-08-12T18:10:05.227Z,2.00
2022-08-12T18:12:40.056Z,2.10
2022-08-12T18:15:21.446Z,1.92
2022-08-12T18:17:59.294Z,2.67
2022-08-12T18:20:29.062Z,1.98
2022-08-12T18:22:59.527Z,1.80
2022-08-12T18:26:15.237Z,1.92
2022-08-12T18:28:43.060Z,2.00
2022-08-12T18:31:15.225Z,1.60
2022-08-12T18:33:45.831Z,1.98
2022-08-12T18:36:14.741Z,2.08
2022-08-12T18:38:55.802Z,1.90
2022-08-12T18:41:35.744Z,1.70
2022-08-12T18:44:11.239Z,2.10
2022-08-12T18:46:54.006Z,1.85
2022-08-12T18:49:29.609Z,1.77
2022-08-12T18:52:03.951Z,2.05
2022-08-12T18:54:35.878Z,1.85
2022-08-12T18:57:16.502Z,2.28
2022-08-12T19:00:01.303Z,2.22
2022-08-12T19:02:32.994Z,2.00
2022-08-12T19:05:09.807Z,1.73
2022-08-12T19:08:00.131Z,1.77
2022-08-12T19:10:30.720Z,2.05
2022-08-12T19:13:23.029Z,2.10
2022-08-12T19:15:57.895Z,1.90
2022-08-12T19:18:29.146Z,2.00
2022-08-12T19:21:12.058Z,1.92
2022-08-12T19:24:04.522Z,2.40
2022-08-12T19:26:34.474Z,1.90
2022-08-12T19:29:04.951Z,2.40
2022-08-12T19:31:58.301Z,2.17
2022-08-12T19:37:22.609Z,2.03
2022-08-12T19:40:10.277Z,2.20
2022-08-12T19:42:44.309Z,1.92
2022-08-12T19:45:14.845Z,2.20
2022-08-12T19:47:44.766Z,2.70
2022-08-12T19:50:12.469Z,2.20
2022-08-12T19:55:19.809Z,2.13
2022-08-12T20:00:34.425Z,2.80
2022-08-12T20:03:04.378Z,1.98
2022-08-12T20:06:05.252Z,2.25
2022-08-12T20:08:31.369Z,2.15
2022-08-12T20:12:13.790Z,2.40
2022-08-12T20:14:00.480Z,2.40
2022-08-12T20:16:57.852Z,2.30
2022-08-12T20:19:52.927Z,2.45
2022-08-12T20:22:29.915Z,2.25
2022-08-12T20:25:02.034Z,2.15
2022-08-12T20:28:04.060Z,2.45
2022-08-12T20:30:52.667Z,2.67
2022-08-12T20:33:17.478Z,2.30
2022-08-12T20:36:13.143Z,2.40
2022-08-12T20:38:42.102Z,2.55
2022-08-12T20:41:16.438Z,2.80
2022-08-12T20:43:57.604Z,2.63
2022-08-12T20:46:31.611Z,3.15
2022-08-12T20:49:00.824Z,2.78
2022-08-12T20:51:50.946Z,2.67
2022-08-12T20:54:32.917Z,3.45
2022-08-12T20:57:02.038Z,2.72
2022-08-12T20:59:48.222Z,2.65
2022-08-12T21:02:24.292Z,2.90
2022-08-12T21:05:16.211Z,2.65
2022-08-12T21:07:52.246Z,2.20
2022-08-12T21:10:21.374Z,2.28
2022-08-12T21:12:54.028Z,2.70
2022-08-12T21:15:23.987Z,2.20
2022-08-12T21:18:11.798Z,2.85
2022-08-12T21:20:54.327Z,2.78
2022-08-12T21:23:22.578Z,2.20
2022-08-12T21:25:56.017Z,2.60
2022-08-12T21:28:30.809Z,2.15
2022-08-12T21:32:37.808Z,2.80
2022-08-12T21:34:08.002Z,2.53
2022-08-12T21:36:43.371Z,2.42
2022-08-12T21:39:21.662Z,1.98
2022-08-12T21:41:52.037Z,2.00
2022-08-12T21:44:24.324Z,2.10
2022-08-12T21:47:20.545Z,2.45
2022-08-12T21:50:02.289Z,2.67
2022-08-12T21:52:34.681Z,2.07
2022-08-12T21:55:08.519Z,2.13
2022-08-12T21:57:50.513Z,2.20
2022-08-12T22:00:33.541Z,2.05
2022-08-12T22:04:02.989Z,2.05
2022-08-12T22:06:30.611Z,1.90
2022-08-12T22:09:15.455Z,2.08
2022-08-12T22:11:49.354Z,2.05
2022-08-12T22:14:28.590Z,2.47
2022-08-12T22:17:00.458Z,2.42
2022-08-12T22:19:28.646Z,2.55
2022-08-12T22:21:58.390Z,2.13
2022-08-12T22:24:30.530Z,2.17
2022-08-12T22:27:08.158Z,2.30
2022-08-12T22:30:11.214Z,2.63
2022-08-12T22:32:49.947Z,2.97
2022-08-12T22:35:47.397Z,2.25
2022-08-12T22:38:26.363Z,2.22
2022-08-12T22:41:01.961Z,2.50
2022-08-12T22:43:59.634Z,2.50
2022-08-12T22:46:52.079Z,2.55
2022-08-12T22:49:20.983Z,2.30
2022-08-12T22:51:57.630Z,2.60
2022-08-12T22:54:35.796Z,2.60
2022-08-12T22:57:11.905Z,2.55
2022-08-12T22:59:55.921Z,2.72
2022-08-12T23:02:39.213Z,2.95
2022-08-12T23:05:10.389Z,2.60
2022-08-12T23:07:58.647Z,2.90
2022-08-12T23:10:26.981Z,2.92
2022-08-12T23:13:12.777Z,2.85
2022-08-12T23:15:47.756Z,2.75
2022-08-12T23:18:22.291Z,2.67
2022-08-12T23:20:57.552Z,3.17
2022-08-12T23:23:24.885Z,2.00
2022-08-12T23:25:55.541Z,2.35
2022-08-12T23:28:42.491Z,2.33
2022-08-12T23:31:10.135Z,2.95
2022-08-12T23:34:01.818Z,2.78
2022-08-12T23:36:31.891Z,2.70
2022-08-12T23:40:06.451Z,2.53
2022-08-12T23:42:17.429Z,2.13
2022-08-12T23:44:48.363Z,3.30
2022-08-12T23:47:23.249Z,2.75
2022-08-12T23:49:58.313Z,2.60
2022-08-12T23:52:28.578Z,2.35
2022-08-12T23:55:23.405Z,2.53
2022-08-12T23:58:21.825Z,2.60
